sensor_id;sensor_type;location;lat;lon;timestamp;temperature;humidity
52030;DHT22;38043;53.224;6.580;2022-08-01T00:02:21;17.90;99.90
52030;DHT22;38043;53.224;6.580;2022-08-01T00:04:47;17.90;99.90
52030;DHT22;38043;53.224;6.580;2022-08-01T00:07:13;17.90;99.90
52030;DHT22;38043;53.224;6.580;2022-08-01T00:09:38;17.90;99.90
52030;DHT22;38043;53.224;6.580;2022-08-01T00:12:04;17.90;99.90
52030;DHT22;38043;53.224;6.580;2022-08-01T00:14:30;17.90;99.90
52030;DHT22;38043;53.224;6.580;2022-08-01T00:16:56;17.90;99.90
52030;DHT22;38043;53.224;6.580;2022-08-01T00:19:21;17.90;99.90
52030;DHT22;38043;53.224;6.580;2022-08-01T00:21:47;17.90;99.90
52030;DHT22;38043;53.224;6.580;2022-08-01T00:24:13;17.90;99.90
52030;DHT22;38043;53.224;6.580;2022-08-01T00:26:38;17.90;99.90
52030;DHT22;38043;53.224;6.580;2022-08-01T00:29:04;18.00;99.90
52030;DHT22;38043;53.224;6.580;2022-08-01T00:31:30;18.00;99.90
52030;DHT22;38043;53.224;6.580;2022-08-01T00:33:55;17.90;99.90
52030;DHT22;38043;53.224;6.580;2022-08-01T00:36:21;17.90;99.90
52030;DHT22;38043;53.224;6.580;2022-08-01T00:38:46;17.90;99.90
52030;DHT22;38043;53.224;6.580;2022-08-01T00:41:12;17.90;99.90
52030;DHT22;38043;53.224;6.580;2022-08-01T00:43:38;17.90;99.90
52030;DHT22;38043;53.224;6.580;2022-08-01T00:46:07;17.90;99.90
52030;DHT22;38043;53.224;6.580;2022-08-01T00:48:33;17.90;99.90
52030;DHT22;38043;53.224;6.580;2022-08-01T00:50:59;17.80;99.90
52030;DHT22;38043;53.224;6.580;2022-08-01T00:53:24;17.90;99.90
52030;DHT22;38043;53.224;6.580;2022-08-01T00:55:50;17.80;99.90
52030;DHT22;38043;53.224;6.580;2022-08-01T00:58:19;17.80;99.90
52030;DHT22;38043;53.224;6.580;2022-08-01T01:00:45;17.80;99.90
52030;DHT22;38043;53.224;6.580;2022-08-01T01:03:11;17.80;99.90
52030;DHT22;38043;53.224;6.580;2022-08-01T01:12:01;17.80;99.90
52030;DHT22;38043;53.224;6.580;2022-08-01T01:14:50;17.80;99.90
52030;DHT22;38043;53.224;6.580;2022-08-01T01:17:26;17.80;99.90
52030;DHT22;38043;53.224;6.580;2022-08-01T01:19:57;17.70;99.90
52030;DHT22;38043;53.224;6.580;2022-08-01T01:30:29;17.60;99.90
52030;DHT22;38043;53.224;6.580;2022-08-01T01:33:00;17.50;99.90
52030;DHT22;38043;53.224;6.580;2022-08-01T01:35:31;17.50;99.90
52030;DHT22;38043;53.224;6.580;2022-08-01T01:38:05;17.50;99.90
52030;DHT22;38043;53.224;6.580;2022-08-01T01:40:33;17.50;99.90
52030;DHT22;38043;53.224;6.580;2022-08-01T01:42:59;17.50;99.90
52030;DHT22;38043;53.224;6.580;2022-08-01T01:45:26;17.40;99.90
52030;DHT22;38043;53.224;6.580;2022-08-01T01:47:52;17.40;99.90
52030;DHT22;38043;53.224;6.580;2022-08-01T01:50:23;17.40;99.90
52030;DHT22;38043;53.224;6.580;2022-08-01T01:52:50;17.40;99.90
52030;DHT22;38043;53.224;6.580;2022-08-01T01:55:16;17.30;99.90
52030;DHT22;38043;53.224;6.580;2022-08-01T01:57:44;17.30;99.90
52030;DHT22;38043;53.224;6.580;2022-08-01T02:00:12;17.30;99.90
52030;DHT22;38043;53.224;6.580;2022-08-01T02:02:38;17.30;99.90
52030;DHT22;38043;53.224;6.580;2022-08-01T02:05:05;17.20;99.90
52030;DHT22;38043;53.224;6.580;2022-08-01T02:07:34;17.20;99.90
52030;DHT22;38043;53.224;6.580;2022-08-01T02:10:00;17.20;99.90
52030;DHT22;38043;53.224;6.580;2022-08-01T02:12:27;17.20;99.90
52030;DHT22;38043;53.224;6.580;2022-08-01T02:14:53;17.20;99.90
52030;DHT22;38043;53.224;6.580;2022-08-01T02:17:21;17.20;99.90
52030;DHT22;38043;53.224;6.580;2022-08-01T02:19:49;17.20;99.90
52030;DHT22;38043;53.224;6.580;2022-08-01T02:22:28;17.20;99.90
52030;DHT22;38043;53.224;6.580;2022-08-01T02:30:17;17.20;99.90
52030;DHT22;38043;53.224;6.580;2022-08-01T02:32:46;17.10;99.90
52030;DHT22;38043;53.224;6.580;2022-08-01T02:35:15;17.20;99.90
52030;DHT22;38043;53.224;6.580;2022-08-01T02:37:45;17.20;99.90
52030;DHT22;38043;53.224;6.580;2022-08-01T02:40:17;17.20;99.90
52030;DHT22;38043;53.224;6.580;2022-08-01T02:42:47;17.10;99.90
52030;DHT22;38043;53.224;6.580;2022-08-01T02:45:17;17.30;99.90
52030;DHT22;38043;53.224;6.580;2022-08-01T02:47:44;17.20;99.90
52030;DHT22;38043;53.224;6.580;2022-08-01T02:50:12;17.10;99.90
52030;DHT22;38043;53.224;6.580;2022-08-01T02:52:40;17.10;99.90
52030;DHT22;38043;53.224;6.580;2022-08-01T02:55:12;17.10;99.90
52030;DHT22;38043;53.224;6.580;2022-08-01T02:57:39;17.10;99.90
52030;DHT22;38043;53.224;6.580;2022-08-01T03:00:06;17.10;99.90
52030;DHT22;38043;53.224;6.580;2022-08-01T03:02:36;17.10;99.90
52030;DHT22;38043;53.224;6.580;2022-08-01T03:05:02;17.00;99.90
52030;DHT22;38043;53.224;6.580;2022-08-01T03:07:28;17.00;99.90
52030;DHT22;38043;53.224;6.580;2022-08-01T03:09:56;16.90;99.90
52030;DHT22;38043;53.224;6.580;2022-08-01T03:12:26;16.90;99.90
52030;DHT22;38043;53.224;6.580;2022-08-01T03:14:55;16.90;99.90
52030;DHT22;38043;53.224;6.580;2022-08-01T03:17:24;16.80;99.90
52030;DHT22;38043;53.224;6.580;2022-08-01T03:19:51;16.80;99.90
52030;DHT22;38043;53.224;6.580;2022-08-01T03:22:18;16.70;99.90
52030;DHT22;38043;53.224;6.580;2022-08-01T03:24:52;16.80;99.90
52030;DHT22;38043;53.224;6.580;2022-08-01T03:27:22;16.80;99.90
52030;DHT22;38043;53.224;6.580;2022-08-01T03:29:51;16.70;99.90
52030;DHT22;38043;53.224;6.580;2022-08-01T03:32:20;16.70;99.90
52030;DHT22;38043;53.224;6.580;2022-08-01T03:34:46;16.70;99.90
52030;DHT22;38043;53.224;6.580;2022-08-01T03:37:21;16.60;99.90
52030;DHT22;38043;53.224;6.580;2022-08-01T03:39:58;16.70;99.90
52030;DHT22;38043;53.224;6.580;2022-08-01T03:42:34;16.70;99.90
52030;DHT22;38043;53.224;6.580;2022-08-01T03:45:08;16.70;99.90
52030;DHT22;38043;53.224;6.580;2022-08-01T03:47:38;16.70;99.90
52030;DHT22;38043;53.224;6.580;2022-08-01T03:50:10;16.70;99.90
52030;DHT22;38043;53.224;6.580;2022-08-01T03:52:42;16.60;99.90
52030;DHT22;38043;53.224;6.580;2022-08-01T03:55:10;16.70;99.90
52030;DHT22;38043;53.224;6.580;2022-08-01T03:57:40;16.70;99.90
52030;DHT22;38043;53.224;6.580;2022-08-01T04:00:06;16.60;99.90
52030;DHT22;38043;53.224;6.580;2022-08-01T04:02:34;16.50;99.90
52030;DHT22;38043;53.224;6.580;2022-08-01T04:05:00;16.60;99.90
52030;DHT22;38043;53.224;6.580;2022-08-01T04:07:29;16.50;99.90
52030;DHT22;38043;53.224;6.580;2022-08-01T04:09:55;16.60;99.90
52030;DHT22;38043;53.224;6.580;2022-08-01T04:12:22;16.60;99.90
52030;DHT22;38043;53.224;6.580;2022-08-01T04:14:48;16.50;99.90
52030;DHT22;38043;53.224;6.580;2022-08-01T04:17:15;16.50;99.90
52030;DHT22;38043;53.224;6.580;2022-08-01T04:19:41;16.50;99.90
52030;DHT22;38043;53.224;6.580;2022-08-01T04:22:09;16.50;99.90
52030;DHT22;38043;53.224;6.580;2022-08-01T04:24:36;16.50;99.90
52030;DHT22;38043;53.224;6.580;2022-08-01T04:27:05;16.50;99.90
52030;DHT22;38043;53.224;6.580;2022-08-01T04:29:33;16.50;99.90
52030;DHT22;38043;53.224;6.580;2022-08-01T04:32:01;16.40;99.90
52030;DHT22;38043;53.224;6.580;2022-08-01T04:34:28;16.50;99.90
52030;DHT22;38043;53.224;6.580;2022-08-01T04:36:56;16.50;99.90
52030;DHT22;38043;53.224;6.580;2022-08-01T04:39:24;16.40;99.90
52030;DHT22;38043;53.224;6.580;2022-08-01T04:41:58;16.40;99.90
52030;DHT22;38043;53.224;6.580;2022-08-01T04:44:28;16.40;99.90
52030;DHT22;38043;53.224;6.580;2022-08-01T04:46:58;16.40;99.90
52030;DHT22;38043;53.224;6.580;2022-08-01T04:49:25;16.30;99.90
52030;DHT22;38043;53.224;6.580;2022-08-01T04:51:55;16.40;99.90
52030;DHT22;38043;53.224;6.580;2022-08-01T04:54:26;16.40;99.90
52030;DHT22;38043;53.224;6.580;2022-08-01T04:56:53;16.40;99.90
52030;DHT22;38043;53.224;6.580;2022-08-01T04:59:21;16.40;99.90
52030;DHT22;38043;53.224;6.580;2022-08-01T05:02:10;16.40;99.90
52030;DHT22;38043;53.224;6.580;2022-08-01T05:04:41;16.40;99.90
52030;DHT22;38043;53.224;6.580;2022-08-01T05:07:07;16.40;99.90
52030;DHT22;38043;53.224;6.580;2022-08-01T05:09:34;16.40;99.90
52030;DHT22;38043;53.224;6.580;2022-08-01T05:12:02;16.40;99.90
52030;DHT22;38043;53.224;6.580;2022-08-01T05:14:29;16.40;99.90
52030;DHT22;38043;53.224;6.580;2022-08-01T05:17:02;16.40;99.90
52030;DHT22;38043;53.224;6.580;2022-08-01T05:19:36;16.90;99.90
52030;DHT22;38043;53.224;6.580;2022-08-01T05:22:08;16.30;99.90
52030;DHT22;38043;53.224;6.580;2022-08-01T05:24:36;16.40;99.90
52030;DHT22;38043;53.224;6.580;2022-08-01T05:27:03;16.40;99.90
52030;DHT22;38043;53.224;6.580;2022-08-01T05:29:29;16.30;99.90
52030;DHT22;38043;53.224;6.580;2022-08-01T05:31:55;16.30;99.90
52030;DHT22;38043;53.224;6.580;2022-08-01T05:34:22;16.40;99.90
52030;DHT22;38043;53.224;6.580;2022-08-01T05:36:47;16.40;99.90
52030;DHT22;38043;53.224;6.580;2022-08-01T05:39:13;16.40;99.90
52030;DHT22;38043;53.224;6.580;2022-08-01T05:41:39;16.30;99.90
52030;DHT22;38043;53.224;6.580;2022-08-01T05:44:06;16.40;99.90
52030;DHT22;38043;53.224;6.580;2022-08-01T05:46:34;16.40;99.90
52030;DHT22;38043;53.224;6.580;2022-08-01T05:49:02;16.40;99.90
52030;DHT22;38043;53.224;6.580;2022-08-01T05:51:28;16.40;99.90
52030;DHT22;38043;53.224;6.580;2022-08-01T05:53:54;16.40;99.90
52030;DHT22;38043;53.224;6.580;2022-08-01T05:56:20;16.40;99.90
52030;DHT22;38043;53.224;6.580;2022-08-01T05:58:46;16.40;99.90
52030;DHT22;38043;53.224;6.580;2022-08-01T06:01:12;16.40;99.90
52030;DHT22;38043;53.224;6.580;2022-08-01T06:03:38;16.40;99.90
52030;DHT22;38043;53.224;6.580;2022-08-01T06:06:04;16.40;99.90
52030;DHT22;38043;53.224;6.580;2022-08-01T06:08:30;16.40;99.90
52030;DHT22;38043;53.224;6.580;2022-08-01T06:10:56;16.40;99.90
52030;DHT22;38043;53.224;6.580;2022-08-01T06:13:21;16.30;99.90
52030;DHT22;38043;53.224;6.580;2022-08-01T06:15:48;16.30;99.90
52030;DHT22;38043;53.224;6.580;2022-08-01T06:18:16;16.30;99.90
52030;DHT22;38043;53.224;6.580;2022-08-01T06:20:42;16.30;99.90
52030;DHT22;38043;53.224;6.580;2022-08-01T06:23:08;16.30;99.90
52030;DHT22;38043;53.224;6.580;2022-08-01T06:25:34;16.30;99.90
52030;DHT22;38043;53.224;6.580;2022-08-01T06:28:00;16.30;99.90
52030;DHT22;38043;53.224;6.580;2022-08-01T06:30:26;16.30;99.90
52030;DHT22;38043;53.224;6.580;2022-08-01T06:32:55;16.30;99.90
52030;DHT22;38043;53.224;6.580;2022-08-01T06:35:24;16.30;99.90
52030;DHT22;38043;53.224;6.580;2022-08-01T06:37:49;16.30;99.90
52030;DHT22;38043;53.224;6.580;2022-08-01T06:40:18;16.30;99.90
52030;DHT22;38043;53.224;6.580;2022-08-01T06:42:44;16.40;99.90
52030;DHT22;38043;53.224;6.580;2022-08-01T06:45:13;16.40;99.90
52030;DHT22;38043;53.224;6.580;2022-08-01T06:47:40;16.40;99.90
52030;DHT22;38043;53.224;6.580;2022-08-01T06:50:07;16.40;99.90
52030;DHT22;38043;53.224;6.580;2022-08-01T06:52:34;16.50;99.90
52030;DHT22;38043;53.224;6.580;2022-08-01T06:55:00;16.50;99.90
52030;DHT22;38043;53.224;6.580;2022-08-01T06:57:26;16.50;99.90
52030;DHT22;38043;53.224;6.580;2022-08-01T06:59:52;16.60;99.90
52030;DHT22;38043;53.224;6.580;2022-08-01T07:02:18;16.60;99.90
52030;DHT22;38043;53.224;6.580;2022-08-01T07:04:43;16.60;99.90
52030;DHT22;38043;53.224;6.580;2022-08-01T07:07:09;16.70;99.90
52030;DHT22;38043;53.224;6.580;2022-08-01T07:09:35;16.70;99.90
52030;DHT22;38043;53.224;6.580;2022-08-01T07:12:01;16.70;99.90
52030;DHT22;38043;53.224;6.580;2022-08-01T07:14:26;16.70;99.90
52030;DHT22;38043;53.224;6.580;2022-08-01T07:16:52;16.80;99.90
52030;DHT22;38043;53.224;6.580;2022-08-01T07:19:20;16.80;99.90
52030;DHT22;38043;53.224;6.580;2022-08-01T07:21:46;16.80;99.90
52030;DHT22;38043;53.224;6.580;2022-08-01T07:24:13;16.90;99.90
52030;DHT22;38043;53.224;6.580;2022-08-01T07:26:45;17.00;99.90
52030;DHT22;38043;53.224;6.580;2022-08-01T07:29:11;17.10;99.90
52030;DHT22;38043;53.224;6.580;2022-08-01T07:31:37;17.20;99.90
52030;DHT22;38043;53.224;6.580;2022-08-01T07:34:03;17.30;99.90
52030;DHT22;38043;53.224;6.580;2022-08-01T07:36:28;17.40;99.90
52030;DHT22;38043;53.224;6.580;2022-08-01T07:38:55;17.40;99.90
52030;DHT22;38043;53.224;6.580;2022-08-01T07:41:20;17.50;99.90
52030;DHT22;38043;53.224;6.580;2022-08-01T07:43:46;17.60;99.90
52030;DHT22;38043;53.224;6.580;2022-08-01T07:46:17;17.60;99.90
52030;DHT22;38043;53.224;6.580;2022-08-01T07:48:44;17.70;99.90
52030;DHT22;38043;53.224;6.580;2022-08-01T07:51:10;17.70;99.90
52030;DHT22;38043;53.224;6.580;2022-08-01T07:53:36;17.80;99.90
52030;DHT22;38043;53.224;6.580;2022-08-01T07:56:03;17.80;99.90
52030;DHT22;38043;53.224;6.580;2022-08-01T07:58:30;17.90;99.90
52030;DHT22;38043;53.224;6.580;2022-08-01T08:00:58;17.80;99.90
52030;DHT22;38043;53.224;6.580;2022-08-01T08:03:24;17.90;99.90
52030;DHT22;38043;53.224;6.580;2022-08-01T08:05:50;18.00;99.90
52030;DHT22;38043;53.224;6.580;2022-08-01T08:08:16;18.00;99.90
52030;DHT22;38043;53.224;6.580;2022-08-01T08:10:44;17.90;99.90
52030;DHT22;38043;53.224;6.580;2022-08-01T08:13:09;17.90;99.90
52030;DHT22;38043;53.224;6.580;2022-08-01T08:15:35;17.90;99.90
52030;DHT22;38043;53.224;6.580;2022-08-01T08:18:03;18.00;99.90
52030;DHT22;38043;53.224;6.580;2022-08-01T08:20:28;18.20;99.90
52030;DHT22;38043;53.224;6.580;2022-08-01T08:22:55;18.30;99.90
52030;DHT22;38043;53.224;6.580;2022-08-01T08:25:21;18.40;99.90
52030;DHT22;38043;53.224;6.580;2022-08-01T08:27:49;18.30;99.90
52030;DHT22;38043;53.224;6.580;2022-08-01T08:30:15;18.40;99.90
52030;DHT22;38043;53.224;6.580;2022-08-01T08:32:41;18.40;99.90
52030;DHT22;38043;53.224;6.580;2022-08-01T08:35:10;18.50;99.90
52030;DHT22;38043;53.224;6.580;2022-08-01T08:37:42;18.60;99.90
52030;DHT22;38043;53.224;6.580;2022-08-01T08:40:08;18.60;99.90
52030;DHT22;38043;53.224;6.580;2022-08-01T08:42:34;18.70;99.90
52030;DHT22;38043;53.224;6.580;2022-08-01T08:45:00;18.70;99.90
52030;DHT22;38043;53.224;6.580;2022-08-01T08:47:27;18.60;99.90
52030;DHT22;38043;53.224;6.580;2022-08-01T08:49:55;18.50;99.90
52030;DHT22;38043;53.224;6.580;2022-08-01T08:52:24;18.70;99.90
52030;DHT22;38043;53.224;6.580;2022-08-01T08:54:51;18.70;99.90
52030;DHT22;38043;53.224;6.580;2022-08-01T08:57:19;18.70;99.90
52030;DHT22;38043;53.224;6.580;2022-08-01T08:59:46;18.70;99.90
52030;DHT22;38043;53.224;6.580;2022-08-01T09:02:12;18.80;99.90
52030;DHT22;38043;53.224;6.580;2022-08-01T09:04:38;18.80;99.90
52030;DHT22;38043;53.224;6.580;2022-08-01T09:07:06;18.80;99.90
52030;DHT22;38043;53.224;6.580;2022-08-01T09:09:34;18.80;99.90
52030;DHT22;38043;53.224;6.580;2022-08-01T09:12:00;18.80;99.90
52030;DHT22;38043;53.224;6.580;2022-08-01T09:14:26;18.80;99.90
52030;DHT22;38043;53.224;6.580;2022-08-01T09:22:13;18.80;99.90
52030;DHT22;38043;53.224;6.580;2022-08-01T09:24:40;18.90;99.90
52030;DHT22;38043;53.224;6.580;2022-08-01T09:27:18;19.10;99.90
52030;DHT22;38043;53.224;6.580;2022-08-01T09:29:44;19.20;99.90
52030;DHT22;38043;53.224;6.580;2022-08-01T09:32:10;19.20;99.90
52030;DHT22;38043;53.224;6.580;2022-08-01T09:34:36;19.10;99.90
52030;DHT22;38043;53.224;6.580;2022-08-01T09:37:12;19.20;99.90
52030;DHT22;38043;53.224;6.580;2022-08-01T09:39:42;19.20;99.90
52030;DHT22;38043;53.224;6.580;2022-08-01T09:42:24;19.20;99.90
52030;DHT22;38043;53.224;6.580;2022-08-01T09:44:50;19.00;99.90
52030;DHT22;38043;53.224;6.580;2022-08-01T09:47:16;18.80;99.90
52030;DHT22;38043;53.224;6.580;2022-08-01T09:49:44;18.70;99.90
52030;DHT22;38043;53.224;6.580;2022-08-01T09:52:22;18.70;99.90
52030;DHT22;38043;53.224;6.580;2022-08-01T09:55:00;18.90;99.90
52030;DHT22;38043;53.224;6.580;2022-08-01T09:57:27;19.10;99.90
52030;DHT22;38043;53.224;6.580;2022-08-01T09:59:55;19.30;99.90
52030;DHT22;38043;53.224;6.580;2022-08-01T10:04:52;19.40;99.90
52030;DHT22;38043;53.224;6.580;2022-08-01T10:07:19;19.40;99.90
52030;DHT22;38043;53.224;6.580;2022-08-01T10:09:46;19.50;99.90
52030;DHT22;38043;53.224;6.580;2022-08-01T10:12:15;19.70;99.90
52030;DHT22;38043;53.224;6.580;2022-08-01T10:14:46;19.70;99.90
52030;DHT22;38043;53.224;6.580;2022-08-01T10:17:15;19.70;99.90
52030;DHT22;38043;53.224;6.580;2022-08-01T10:19:42;19.60;99.90
52030;DHT22;38043;53.224;6.580;2022-08-01T10:22:15;19.70;99.90
52030;DHT22;38043;53.224;6.580;2022-08-01T10:24:47;19.90;99.90
52030;DHT22;38043;53.224;6.580;2022-08-01T10:27:15;20.00;99.90
52030;DHT22;38043;53.224;6.580;2022-08-01T10:29:54;20.20;99.40
52030;DHT22;38043;53.224;6.580;2022-08-01T10:32:23;20.20;99.20
52030;DHT22;38043;53.224;6.580;2022-08-01T10:34:49;20.20;99.30
52030;DHT22;38043;53.224;6.580;2022-08-01T10:37:15;20.10;98.70
52030;DHT22;38043;53.224;6.580;2022-08-01T10:39:42;19.90;98.70
52030;DHT22;38043;53.224;6.580;2022-08-01T10:42:10;19.90;99.80
52030;DHT22;38043;53.224;6.580;2022-08-01T10:44:38;19.90;99.40
52030;DHT22;38043;53.224;6.580;2022-08-01T10:47:11;20.10;98.10
52030;DHT22;38043;53.224;6.580;2022-08-01T10:50:17;20.20;99.70
52030;DHT22;38043;53.224;6.580;2022-08-01T10:53:05;20.50;98.20
52030;DHT22;38043;53.224;6.580;2022-08-01T10:58:27;20.30;96.40
52030;DHT22;38043;53.224;6.580;2022-08-01T11:01:17;20.30;97.70
52030;DHT22;38043;53.224;6.580;2022-08-01T11:09:05;20.40;96.90
52030;DHT22;38043;53.224;6.580;2022-08-01T11:17:44;20.60;96.50
52030;DHT22;38043;53.224;6.580;2022-08-01T11:30:43;21.30;94.50
52030;DHT22;38043;53.224;6.580;2022-08-01T11:33:09;21.20;94.90
52030;DHT22;38043;53.224;6.580;2022-08-01T11:35:36;21.10;92.80
52030;DHT22;38043;53.224;6.580;2022-08-01T11:38:24;20.90;93.80
52030;DHT22;38043;53.224;6.580;2022-08-01T11:41:15;20.60;93.10
52030;DHT22;38043;53.224;6.580;2022-08-01T11:52:26;20.40;92.90
52030;DHT22;38043;53.224;6.580;2022-08-01T11:55:11;20.40;92.90
52030;DHT22;38043;53.224;6.580;2022-08-01T11:57:36;20.60;91.70
52030;DHT22;38043;53.224;6.580;2022-08-01T12:02:36;20.80;93.60
52030;DHT22;38043;53.224;6.580;2022-08-01T12:07:31;21.00;91.70
52030;DHT22;38043;53.224;6.580;2022-08-01T12:10:08;20.90;91.40
52030;DHT22;38043;53.224;6.580;2022-08-01T12:12:36;20.90;91.90
52030;DHT22;38043;53.224;6.580;2022-08-01T12:15:08;21.00;92.00
52030;DHT22;38043;53.224;6.580;2022-08-01T12:17:35;21.20;93.40
52030;DHT22;38043;53.224;6.580;2022-08-01T12:20:03;21.40;93.00
52030;DHT22;38043;53.224;6.580;2022-08-01T12:22:29;21.60;91.10
52030;DHT22;38043;53.224;6.580;2022-08-01T12:24:55;21.80;92.80
52030;DHT22;38043;53.224;6.580;2022-08-01T12:27:30;21.90;92.80
52030;DHT22;38043;53.224;6.580;2022-08-01T12:29:59;22.10;88.30
52030;DHT22;38043;53.224;6.580;2022-08-01T12:32:31;22.10;87.60
52030;DHT22;38043;53.224;6.580;2022-08-01T12:35:11;22.00;87.50
52030;DHT22;38043;53.224;6.580;2022-08-01T12:37:42;21.80;90.00
52030;DHT22;38043;53.224;6.580;2022-08-01T12:40:20;21.90;90.60
52030;DHT22;38043;53.224;6.580;2022-08-01T12:42:49;22.10;89.40
52030;DHT22;38043;53.224;6.580;2022-08-01T12:45:25;22.10;90.80
52030;DHT22;38043;53.224;6.580;2022-08-01T12:47:53;22.10;91.30
52030;DHT22;38043;53.224;6.580;2022-08-01T12:50:21;22.10;91.50
52030;DHT22;38043;53.224;6.580;2022-08-01T12:52:50;22.20;90.70
52030;DHT22;38043;53.224;6.580;2022-08-01T12:55:21;22.30;90.60
52030;DHT22;38043;53.224;6.580;2022-08-01T12:58:07;22.30;88.10
52030;DHT22;38043;53.224;6.580;2022-08-01T13:00:34;22.20;90.10
52030;DHT22;38043;53.224;6.580;2022-08-01T13:05:45;22.10;90.80
52030;DHT22;38043;53.224;6.580;2022-08-01T13:08:32;22.20;86.30
52030;DHT22;38043;53.224;6.580;2022-08-01T13:11:08;22.00;88.90
52030;DHT22;38043;53.224;6.580;2022-08-01T13:13:40;22.10;90.90
52030;DHT22;38043;53.224;6.580;2022-08-01T13:16:08;22.30;89.70
52030;DHT22;38043;53.224;6.580;2022-08-01T13:18:40;22.40;90.30
52030;DHT22;38043;53.224;6.580;2022-08-01T13:21:18;22.50;86.90
52030;DHT22;38043;53.224;6.580;2022-08-01T13:24:09;22.50;88.00
52030;DHT22;38043;53.224;6.580;2022-08-01T13:29:12;22.50;85.30
52030;DHT22;38043;53.224;6.580;2022-08-01T13:31:39;22.70;86.80
52030;DHT22;38043;53.224;6.580;2022-08-01T13:34:09;23.10;88.50
52030;DHT22;38043;53.224;6.580;2022-08-01T13:36:35;23.00;84.20
52030;DHT22;38043;53.224;6.580;2022-08-01T13:39:01;22.60;85.00
52030;DHT22;38043;53.224;6.580;2022-08-01T13:41:46;22.20;86.20
52030;DHT22;38043;53.224;6.580;2022-08-01T13:44:18;21.60;86.60
52030;DHT22;38043;53.224;6.580;2022-08-01T13:46:44;21.50;90.10
52030;DHT22;38043;53.224;6.580;2022-08-01T13:49:15;21.80;88.00
52030;DHT22;38043;53.224;6.580;2022-08-01T13:51:41;22.00;86.10
52030;DHT22;38043;53.224;6.580;2022-08-01T13:54:07;22.20;87.40
52030;DHT22;38043;53.224;6.580;2022-08-01T13:56:33;22.40;85.60
52030;DHT22;38043;53.224;6.580;2022-08-01T13:58:59;22.70;85.10
52030;DHT22;38043;53.224;6.580;2022-08-01T14:01:25;22.90;84.50
52030;DHT22;38043;53.224;6.580;2022-08-01T14:03:51;22.80;86.10
52030;DHT22;38043;53.224;6.580;2022-08-01T14:06:19;22.80;82.40
52030;DHT22;38043;53.224;6.580;2022-08-01T14:08:48;22.80;82.10
52030;DHT22;38043;53.224;6.580;2022-08-01T14:11:17;23.00;83.50
52030;DHT22;38043;53.224;6.580;2022-08-01T14:13:43;23.30;82.70
52030;DHT22;38043;53.224;6.580;2022-08-01T14:16:09;23.30;82.10
52030;DHT22;38043;53.224;6.580;2022-08-01T14:18:34;22.80;83.40
52030;DHT22;38043;53.224;6.580;2022-08-01T14:21:03;22.60;83.20
52030;DHT22;38043;53.224;6.580;2022-08-01T14:23:29;22.60;85.00
52030;DHT22;38043;53.224;6.580;2022-08-01T14:25:55;22.70;85.80
52030;DHT22;38043;53.224;6.580;2022-08-01T14:28:20;23.00;81.70
52030;DHT22;38043;53.224;6.580;2022-08-01T14:30:46;23.30;84.40
52030;DHT22;38043;53.224;6.580;2022-08-01T14:33:13;23.30;81.10
52030;DHT22;38043;53.224;6.580;2022-08-01T14:35:39;23.30;81.90
52030;DHT22;38043;53.224;6.580;2022-08-01T14:38:06;23.30;81.70
52030;DHT22;38043;53.224;6.580;2022-08-01T14:40:33;23.30;82.30
52030;DHT22;38043;53.224;6.580;2022-08-01T14:42:59;23.20;83.10
52030;DHT22;38043;53.224;6.580;2022-08-01T14:45:26;23.50;85.70
52030;DHT22;38043;53.224;6.580;2022-08-01T14:47:53;24.40;80.30
52030;DHT22;38043;53.224;6.580;2022-08-01T14:50:18;24.50;79.40
52030;DHT22;38043;53.224;6.580;2022-08-01T14:52:44;24.50;78.80
52030;DHT22;38043;53.224;6.580;2022-08-01T14:55:13;24.40;78.50
52030;DHT22;38043;53.224;6.580;2022-08-01T14:57:39;24.30;79.50
52030;DHT22;38043;53.224;6.580;2022-08-01T15:00:08;24.30;77.60
52030;DHT22;38043;53.224;6.580;2022-08-01T15:02:40;24.20;80.70
52030;DHT22;38043;53.224;6.580;2022-08-01T15:05:09;24.50;77.70
52030;DHT22;38043;53.224;6.580;2022-08-01T15:07:36;24.30;77.00
52030;DHT22;38043;53.224;6.580;2022-08-01T15:10:06;23.80;79.50
52030;DHT22;38043;53.224;6.580;2022-08-01T15:12:32;23.30;80.30
52030;DHT22;38043;53.224;6.580;2022-08-01T15:14:59;22.90;81.30
52030;DHT22;38043;53.224;6.580;2022-08-01T15:17:27;22.30;83.30
52030;DHT22;38043;53.224;6.580;2022-08-01T15:19:56;22.20;83.00
52030;DHT22;38043;53.224;6.580;2022-08-01T15:22:23;22.00;82.90
52030;DHT22;38043;53.224;6.580;2022-08-01T15:24:50;21.80;83.60
52030;DHT22;38043;53.224;6.580;2022-08-01T15:27:17;21.50;85.10
52030;DHT22;38043;53.224;6.580;2022-08-01T15:29:42;21.20;85.40
52030;DHT22;38043;53.224;6.580;2022-08-01T15:32:08;21.20;85.90
52030;DHT22;38043;53.224;6.580;2022-08-01T15:34:35;21.10;86.00
52030;DHT22;38043;53.224;6.580;2022-08-01T15:37:02;21.00;86.00
52030;DHT22;38043;53.224;6.580;2022-08-01T15:39:31;20.80;86.90
52030;DHT22;38043;53.224;6.580;2022-08-01T15:42:00;20.60;86.50
52030;DHT22;38043;53.224;6.580;2022-08-01T15:44:27;20.40;87.00
52030;DHT22;38043;53.224;6.580;2022-08-01T15:46:53;20.30;87.00
52030;DHT22;38043;53.224;6.580;2022-08-01T15:49:18;20.20;87.70
52030;DHT22;38043;53.224;6.580;2022-08-01T15:51:48;20.10;88.50
52030;DHT22;38043;53.224;6.580;2022-08-01T15:54:14;20.00;90.30
52030;DHT22;38043;53.224;6.580;2022-08-01T15:56:40;20.00;90.00
52030;DHT22;38043;53.224;6.580;2022-08-01T15:59:06;20.00;89.40
52030;DHT22;38043;53.224;6.580;2022-08-01T16:01:34;19.90;89.40
52030;DHT22;38043;53.224;6.580;2022-08-01T16:04:00;19.80;90.30
52030;DHT22;38043;53.224;6.580;2022-08-01T16:06:26;19.80;90.20
52030;DHT22;38043;53.224;6.580;2022-08-01T16:08:53;19.70;90.50
52030;DHT22;38043;53.224;6.580;2022-08-01T16:11:22;19.70;90.40
52030;DHT22;38043;53.224;6.580;2022-08-01T16:13:53;19.60;90.50
52030;DHT22;38043;53.224;6.580;2022-08-01T16:16:19;19.60;90.50
52030;DHT22;38043;53.224;6.580;2022-08-01T16:18:47;19.60;91.10
52030;DHT22;38043;53.224;6.580;2022-08-01T16:21:13;19.50;90.60
52030;DHT22;38043;53.224;6.580;2022-08-01T16:23:40;19.40;90.80
52030;DHT22;38043;53.224;6.580;2022-08-01T16:26:06;19.30;90.80
52030;DHT22;38043;53.224;6.580;2022-08-01T16:28:34;19.20;91.60
52030;DHT22;38043;53.224;6.580;2022-08-01T16:31:03;19.00;92.30
52030;DHT22;38043;53.224;6.580;2022-08-01T16:33:29;19.10;92.00
52030;DHT22;38043;53.224;6.580;2022-08-01T16:35:58;19.10;91.80
52030;DHT22;38043;53.224;6.580;2022-08-01T16:38:23;19.10;91.20
52030;DHT22;38043;53.224;6.580;2022-08-01T16:40:49;19.00;91.10
52030;DHT22;38043;53.224;6.580;2022-08-01T16:43:18;19.00;91.10
52030;DHT22;38043;53.224;6.580;2022-08-01T16:45:45;19.00;91.30
52030;DHT22;38043;53.224;6.580;2022-08-01T16:48:14;18.90;91.20
52030;DHT22;38043;53.224;6.580;2022-08-01T16:50:43;18.80;91.50